createdAt,value
2023-04-16T00:00:16.352Z,80.39
2023-04-16T00:03:08.957Z,79.14
2023-04-16T00:05:41.369Z,78.49
2023-04-16T00:08:13.760Z,78.39
2023-04-16T00:10:45.936Z,79.04
2023-04-16T00:13:18.155Z,79.46
2023-04-16T00:15:50.451Z,78.56
2023-04-16T00:18:22.652Z,78.28
2023-04-16T00:20:54.863Z,78.07
2023-04-16T00:23:27.030Z,77.47
2023-04-16T00:26:00.203Z,77.27
2023-04-16T00:28:32.709Z,77.30
2023-04-16T00:31:05.349Z,77.61
2023-04-16T00:33:37.559Z,77.34
2023-04-16T00:36:10.570Z,77.54
2023-04-16T00:38:42.798Z,77.30
2023-04-16T00:41:14.970Z,77.55
2023-04-16T00:43:47.353Z,77.65
2023-04-16T00:46:20.618Z,77.00
2023-04-16T00:48:55.164Z,76.94
2023-04-16T00:51:27.229Z,76.81
2023-04-16T00:54:00.979Z,77.01
2023-04-16T00:56:34.630Z,77.19
2023-04-16T00:59:07.233Z,77.45
2023-04-16T01:01:39.505Z,77.39
2023-04-16T01:04:11.894Z,77.78
2023-04-16T01:06:44.289Z,77.17
2023-04-16T01:09:17.058Z,77.85
2023-04-16T01:11:49.257Z,77.38
2023-04-16T01:14:21.402Z,76.85
2023-04-16T01:16:53.972Z,76.72
2023-04-16T01:19:26.192Z,76.89
2023-04-16T01:21:58.407Z,77.38
2023-04-16T01:24:30.597Z,77.62
2023-04-16T01:27:02.779Z,77.55
2023-04-16T01:29:35.213Z,77.70
2023-04-16T01:32:07.852Z,77.58
2023-04-16T01:34:42.331Z,77.64
2023-04-16T01:37:16.004Z,78.06
2023-04-16T01:39:48.148Z,78.65
2023-04-16T01:42:20.240Z,78.72
2023-04-16T01:44:52.367Z,78.69
2023-04-16T01:47:24.784Z,78.53
2023-04-16T01:49:57.030Z,78.35
2023-04-16T01:52:29.453Z,78.25
2023-04-16T01:55:02.288Z,78.04
2023-04-16T01:57:34.633Z,78.16
2023-04-16T02:00:09.636Z,78.11
2023-04-16T02:02:50.739Z,77.71
2023-04-16T02:05:27.409Z,78.01
2023-04-16T02:07:59.533Z,77.91
2023-04-16T02:10:31.648Z,77.92
2023-04-16T02:13:03.750Z,78.49
2023-04-16T02:15:35.862Z,78.13
2023-04-16T02:18:08.029Z,78.48
2023-04-16T02:20:44.846Z,78.35
2023-04-16T02:23:17.480Z,78.28
2023-04-16T02:25:50.367Z,78.28
2023-04-16T02:28:22.613Z,79.18
2023-04-16T02:30:54.846Z,79.31
2023-04-16T02:33:27.303Z,79.04
2023-04-16T02:36:04.444Z,78.71
2023-04-16T02:38:37.606Z,79.02
2023-04-16T02:41:10.599Z,80.01
2023-04-16T02:43:42.938Z,80.66
2023-04-16T02:46:15.022Z,79.78
2023-04-16T02:48:47.104Z,79.59
2023-04-16T02:51:19.278Z,79.85
2023-04-16T02:53:51.329Z,80.48
2023-04-16T02:56:23.426Z,80.25
2023-04-16T02:58:55.708Z,79.87
2023-04-16T03:01:28.711Z,81.36
2023-04-16T03:04:01.238Z,81.79
2023-04-16T03:06:33.465Z,81.43
2023-04-16T03:09:05.633Z,81.74
2023-04-16T03:11:37.721Z,81.34
2023-04-16T03:14:10.586Z,80.42
2023-04-16T03:16:42.703Z,80.46
2023-04-16T03:19:14.732Z,80.21
2023-04-16T03:21:48.986Z,79.84
2023-04-16T03:24:23.340Z,79.53
2023-04-16T03:26:55.505Z,78.91
2023-04-16T03:29:27.981Z,78.49
2023-04-16T03:32:00.381Z,78.67
2023-04-16T03:34:32.704Z,79.00
2023-04-16T03:37:06.313Z,78.69
2023-04-16T03:39:38.824Z,78.81
2023-04-16T03:42:10.985Z,78.83
2023-04-16T03:44:43.106Z,79.10
2023-04-16T03:47:15.175Z,78.98
2023-04-16T03:49:47.259Z,78.50
2023-04-16T03:52:19.750Z,78.51
2023-04-16T03:54:52.095Z,78.24
2023-04-16T03:57:29.172Z,78.69
2023-04-16T04:00:07.118Z,77.97
2023-04-16T04:02:48.182Z,78.07
2023-04-16T04:05:23.606Z,78.09
2023-04-16T04:07:57.026Z,78.25
2023-04-16T04:10:29.162Z,78.54
2023-04-16T04:13:01.492Z,78.40
2023-04-16T04:15:33.661Z,78.28
2023-04-16T04:18:08.289Z,78.23
2023-04-16T04:20:43.436Z,78.22
2023-04-16T04:23:18.103Z,78.08
2023-04-16T04:25:51.059Z,78.38
2023-04-16T04:28:23.258Z,79.70
2023-04-16T04:30:55.378Z,79.67
2023-04-16T04:33:28.075Z,79.48
2023-04-16T04:36:00.280Z,79.28
2023-04-16T04:38:32.751Z,79.80
2023-04-16T04:41:04.986Z,80.17
2023-04-16T04:43:39.447Z,79.72
2023-04-16T04:46:11.809Z,79.46
2023-04-16T04:48:45.624Z,79.40
2023-04-16T04:51:17.700Z,79.14
2023-04-16T04:53:51.452Z,80.57
2023-04-16T04:56:23.590Z,79.38
2023-04-16T04:58:56.151Z,79.37
2023-04-16T05:01:28.420Z,79.16
2023-04-16T05:04:00.730Z,79.81
2023-04-16T05:06:32.964Z,80.16
2023-04-16T05:09:05.182Z,80.05
2023-04-16T05:11:37.798Z,80.36
2023-04-16T05:14:09.975Z,80.62
2023-04-16T05:16:42.066Z,80.35
2023-04-16T05:19:14.249Z,80.79
2023-04-16T05:21:46.493Z,80.40
2023-04-16T05:24:18.661Z,80.55
2023-04-16T05:26:50.758Z,81.07
2023-04-16T05:29:22.883Z,81.15
2023-04-16T05:31:55.067Z,80.87
2023-04-16T05:34:27.159Z,80.96
2023-04-16T05:36:59.278Z,80.70
2023-04-16T05:39:31.329Z,80.40
2023-04-16T05:42:03.469Z,80.64
2023-04-16T05:44:35.590Z,80.68
2023-04-16T05:47:09.650Z,80.63
2023-04-16T05:49:41.806Z,80.52
2023-04-16T05:52:14.050Z,80.44
2023-04-16T05:54:46.092Z,80.72
2023-04-16T05:57:18.130Z,82.00
2023-04-16T05:59:50.303Z,81.96
2023-04-16T06:02:22.707Z,81.60
2023-04-16T06:04:55.219Z,81.17
2023-04-16T06:07:27.317Z,81.09
2023-04-16T06:09:59.360Z,81.12
2023-04-16T06:12:31.444Z,81.06
2023-04-16T06:15:04.212Z,80.80
2023-04-16T06:17:36.473Z,80.52
2023-04-16T06:20:10.958Z,80.01
2023-04-16T06:22:43.030Z,79.76
2023-04-16T06:25:16.804Z,79.83
2023-04-16T06:27:58.074Z,79.39
2023-04-16T06:30:30.548Z,79.54
2023-04-16T06:33:03.014Z,79.72
2023-04-16T06:35:35.289Z,80.06
2023-04-16T06:38:07.385Z,80.05
2023-04-16T06:40:39.640Z,79.95
2023-04-16T06:43:11.916Z,80.28
2023-04-16T06:45:44.799Z,80.58
2023-04-16T06:48:16.938Z,79.26
2023-04-16T06:50:49.163Z,79.71
2023-04-16T06:53:21.382Z,79.15
2023-04-16T06:55:54.026Z,78.57
2023-04-16T06:58:27.661Z,77.85
2023-04-16T07:01:00.203Z,78.08
2023-04-16T07:03:32.658Z,79.00
2023-04-16T07:06:04.999Z,78.95
2023-04-16T07:08:37.486Z,78.88
2023-04-16T07:11:09.930Z,78.24
2023-04-16T07:13:42.375Z,78.52
2023-04-16T07:16:14.667Z,78.34
2023-04-16T07:18:47.809Z,77.81
2023-04-16T07:21:28.781Z,77.71
2023-04-16T07:24:04.701Z,77.30
2023-04-16T07:26:37.148Z,76.68
2023-04-16T07:29:09.936Z,77.82
2023-04-16T07:31:43.090Z,77.63
2023-04-16T07:34:15.772Z,76.77
2023-04-16T07:36:48.128Z,76.49
2023-04-16T07:39:20.497Z,76.51
2023-04-16T07:41:53.084Z,75.82
2023-04-16T07:44:25.501Z,74.89
2023-04-16T07:46:57.993Z,74.85
2023-04-16T07:49:30.390Z,74.90
2023-04-16T07:52:03.378Z,74.79
2023-04-16T07:54:35.644Z,74.76
2023-04-16T07:57:08.083Z,74.52
2023-04-16T07:59:40.398Z,73.24
2023-04-16T08:02:15.784Z,72.67
2023-04-16T08:04:48.333Z,71.20
2023-04-16T08:07:20.654Z,71.91
2023-04-16T08:09:54.697Z,71.61
2023-04-16T08:12:26.893Z,71.32
2023-04-16T08:14:59.464Z,70.80
2023-04-16T08:17:35.582Z,69.98
2023-04-16T08:20:12.001Z,69.78
2023-04-16T08:22:47.686Z,70.40
2023-04-16T08:25:20.715Z,70.77
2023-04-16T08:27:53.196Z,69.98
2023-04-16T08:30:25.668Z,69.20
2023-04-16T08:32:58.010Z,69.59
2023-04-16T08:35:30.319Z,68.95
2023-04-16T08:38:02.720Z,68.08
2023-04-16T08:40:37.788Z,67.79
2023-04-16T08:43:14.170Z,68.27
2023-04-16T08:45:48.798Z,67.53
2023-04-16T08:48:23.090Z,67.45
2023-04-16T08:50:56.024Z,67.26
2023-04-16T08:53:37.371Z,65.94
2023-04-16T08:56:13.055Z,66.23
2023-04-16T08:58:47.629Z,64.72
2023-04-16T09:01:21.930Z,65.36
2023-04-16T09:03:55.481Z,63.41
2023-04-16T09:06:28.587Z,64.94
2023-04-16T09:09:04.904Z,64.89
2023-04-16T09:11:37.807Z,65.17
2023-04-16T09:14:13.029Z,65.46
2023-04-16T09:16:46.922Z,65.22
2023-04-16T09:19:19.127Z,64.79
2023-04-16T09:21:51.318Z,65.00
2023-04-16T09:24:25.364Z,64.65
2023-04-16T09:26:58.378Z,64.15
2023-04-16T09:29:40.978Z,62.79
2023-04-16T09:32:14.318Z,61.69
2023-04-16T09:35:00.807Z,62.50
2023-04-16T09:37:33.815Z,63.18
2023-04-16T09:40:08.190Z,62.42
2023-04-16T09:42:42.229Z,62.04
2023-04-16T09:45:15.800Z,61.69
2023-04-16T09:47:48.549Z,61.05
2023-04-16T09:50:21.515Z,60.56
2023-04-16T09:52:53.938Z,61.00
2023-04-16T09:55:30.511Z,61.32
2023-04-16T09:58:03.445Z,61.34
2023-04-16T10:00:35.602Z,61.07
2023-04-16T10:03:15.916Z,60.36
2023-04-16T10:05:48.570Z,59.15
2023-04-16T10:08:21.013Z,59.93
2023-04-16T10:10:54.182Z,59.63
2023-04-16T10:13:28.333Z,58.82
2023-04-16T10:16:01.288Z,57.99
2023-04-16T10:18:34.728Z,58.09
2023-04-16T10:21:08.101Z,58.14
2023-04-16T10:23:43.313Z,58.29
2023-04-16T10:26:16.982Z,58.44
2023-04-16T10:28:49.569Z,58.72
2023-04-16T10:31:21.863Z,58.51
2023-04-16T10:33:54.413Z,58.66
2023-04-16T10:36:28.757Z,58.77
2023-04-16T10:39:02.691Z,57.75
2023-04-16T10:41:37.934Z,58.19
2023-04-16T10:44:11.738Z,58.02
2023-04-16T10:46:45.617Z,57.23
2023-04-16T10:49:19.372Z,56.35
2023-04-16T10:51:59.485Z,57.33
2023-04-16T10:54:34.339Z,57.16
2023-04-16T10:57:09.336Z,56.73
2023-04-16T10:59:43.634Z,57.23
2023-04-16T11:02:18.517Z,56.97
2023-04-16T11:04:51.575Z,56.57
2023-04-16T11:07:34.457Z,56.60
2023-04-16T11:10:14.837Z,56.73
2023-04-16T11:12:49.908Z,57.23
2023-04-16T11:15:23.548Z,56.79
2023-04-16T11:17:56.053Z,57.26
2023-04-16T11:20:29.708Z,56.37
2023-04-16T11:23:01.869Z,54.88
2023-04-16T11:25:35.387Z,54.47
2023-04-16T11:28:08.232Z,54.33
2023-04-16T11:30:41.823Z,52.73
2023-04-16T11:33:14.802Z,52.03
2023-04-16T11:35:57.510Z,51.29
2023-04-16T11:38:38.036Z,49.42
2023-04-16T11:41:11.281Z,50.72
2023-04-16T11:43:43.770Z,49.79
2023-04-16T11:46:26.950Z,48.14
2023-04-16T11:49:00.450Z,48.09
2023-04-16T11:51:32.973Z,44.98
2023-04-16T11:54:05.654Z,44.50
2023-04-16T11:56:38.922Z,44.89
2023-04-16T11:59:15.961Z,44.67
2023-04-16T12:01:51.187Z,45.97
2023-04-16T12:04:25.878Z,45.03
2023-04-16T12:07:14.743Z,43.93
2023-04-16T12:09:47.894Z,42.01
2023-04-16T12:12:32.223Z,42.61
2023-04-16T12:15:05.626Z,42.94
2023-04-16T12:17:39.298Z,41.48
2023-04-16T12:20:15.458Z,40.26
2023-04-16T12:22:50.143Z,40.52
2023-04-16T12:25:25.700Z,41.39
2023-04-16T12:27:58.696Z,41.93
2023-04-16T12:30:32.095Z,41.71
2023-04-16T12:33:21.949Z,42.29
2023-04-16T12:35:54.953Z,43.05
2023-04-16T12:38:27.361Z,42.88
2023-04-16T12:41:02.540Z,42.75
2023-04-16T12:43:34.834Z,42.90
2023-04-16T12:46:07.071Z,43.25
2023-04-16T12:48:39.852Z,43.85
2023-04-16T12:51:12.171Z,43.65
2023-04-16T12:53:44.538Z,41.41
2023-04-16T12:56:17.091Z,41.55
2023-04-16T12:58:51.841Z,43.89
2023-04-16T13:01:24.841Z,44.73
2023-04-16T13:03:57.659Z,43.80
2023-04-16T13:06:35.309Z,44.67
2023-04-16T13:09:09.726Z,44.81
2023-04-16T13:11:42.297Z,43.68
2023-04-16T13:14:14.495Z,44.17
2023-04-16T13:16:46.631Z,42.71
2023-04-16T13:19:19.352Z,41.70
2023-04-16T13:21:52.042Z,41.19
2023-04-16T13:24:24.405Z,39.59
2023-04-16T13:26:57.406Z,37.36
2023-04-16T13:29:30.233Z,35.06
2023-04-16T13:32:02.397Z,37.02
2023-04-16T13:34:34.571Z,37.78
2023-04-16T13:37:07.008Z,37.79
2023-04-16T13:39:39.164Z,37.67
2023-04-16T13:42:11.381Z,39.17
2023-04-16T13:44:43.557Z,39.01
2023-04-16T13:47:16.332Z,40.76
2023-04-16T13:49:49.009Z,41.03
2023-04-16T13:52:21.117Z,41.58
2023-04-16T13:54:53.178Z,42.14
2023-04-16T13:57:26.352Z,43.25
2023-04-16T13:59:58.816Z,43.77
2023-04-16T14:02:31.031Z,43.90
2023-04-16T14:05:03.499Z,43.99
2023-04-16T14:07:36.450Z,43.49
2023-04-16T14:10:10.671Z,41.00
2023-04-16T14:12:43.193Z,39.84
2023-04-16T14:15:17.059Z,40.42
2023-04-16T14:17:49.364Z,41.76
2023-04-16T14:20:22.226Z,43.04
2023-04-16T14:22:57.656Z,44.23
2023-04-16T14:25:30.068Z,45.29
2023-04-16T14:28:03.522Z,45.93
2023-04-16T14:30:45.767Z,46.48
2023-04-16T14:33:18.628Z,47.41
2023-04-16T14:35:51.506Z,48.00
2023-04-16T14:38:24.065Z,48.95
2023-04-16T14:40:56.348Z,49.02
2023-04-16T14:43:31.890Z,49.43
2023-04-16T14:46:06.708Z,49.80
2023-04-16T14:48:39.013Z,50.90
2023-04-16T14:51:11.695Z,50.75
2023-04-16T14:53:43.964Z,51.23
2023-04-16T14:56:16.351Z,50.11
2023-04-16T14:58:49.412Z,49.66
2023-04-16T15:01:22.952Z,48.23
2023-04-16T15:03:56.743Z,45.81
2023-04-16T15:06:29.697Z,43.31
2023-04-16T15:09:01.954Z,44.45
2023-04-16T15:11:34.085Z,45.09
2023-04-16T15:14:07.130Z,45.84
2023-04-16T15:16:39.463Z,45.89
2023-04-16T15:19:12.094Z,45.55
2023-04-16T15:21:46.006Z,46.24
2023-04-16T15:24:20.153Z,45.23
2023-04-16T15:26:54.024Z,42.34
2023-04-16T15:29:26.317Z,39.98
2023-04-16T15:31:58.612Z,39.39
2023-04-16T15:34:31.674Z,38.33
2023-04-16T15:37:04.039Z,37.17
2023-04-16T15:39:36.341Z,37.06
2023-04-16T15:42:09.500Z,36.73
2023-04-16T15:44:41.892Z,38.20
2023-04-16T15:47:14.198Z,39.20
2023-04-16T15:49:48.244Z,40.35
2023-04-16T15:52:21.239Z,41.25
2023-04-16T15:54:53.656Z,42.14
2023-04-16T15:57:26.385Z,43.01
2023-04-16T16:00:09.111Z,43.74
2023-04-16T16:02:44.231Z,44.68
2023-04-16T16:05:19.195Z,45.72
2023-04-16T16:07:53.336Z,46.06
2023-04-16T16:10:26.375Z,47.27
2023-04-16T16:13:02.037Z,47.30
2023-04-16T16:15:32.727Z,47.67
2023-04-16T16:18:06.812Z,48.08
2023-04-16T16:20:40.718Z,48.17
2023-04-16T16:23:15.823Z,49.02
2023-04-16T16:25:48.263Z,49.26
2023-04-16T16:28:20.840Z,49.59
2023-04-16T16:30:59.969Z,49.53
2023-04-16T16:33:40.606Z,49.79
2023-04-16T16:36:14.848Z,50.14
2023-04-16T16:38:47.880Z,50.32
2023-04-16T16:41:25.936Z,50.22
2023-04-16T16:44:03.542Z,51.00
2023-04-16T16:46:41.566Z,51.25
2023-04-16T16:49:43.535Z,51.59
2023-04-16T16:55:39.245Z,52.26
2023-04-16T16:58:12.382Z,53.06
2023-04-16T17:00:46.149Z,52.78
2023-04-16T17:03:22.114Z,53.28
2023-04-16T17:05:58.787Z,53.10
2023-04-16T17:08:37.381Z,53.49
2023-04-16T17:11:10.866Z,53.56
2023-04-16T17:13:46.087Z,53.53
2023-04-16T17:16:24.273Z,53.76
2023-04-16T17:19:00.557Z,54.59
2023-04-16T17:21:34.105Z,55.21
2023-04-16T17:24:06.894Z,55.97
2023-04-16T17:26:55.546Z,57.79
2023-04-16T17:29:27.825Z,58.53
2023-04-16T17:32:00.345Z,58.86
2023-04-16T17:34:32.531Z,59.04
2023-04-16T17:37:04.740Z,58.70
2023-04-16T17:39:37.188Z,58.92
2023-04-16T17:42:09.390Z,58.94
2023-04-16T17:44:41.569Z,59.12
2023-04-16T17:47:13.982Z,58.89
2023-04-16T17:49:46.373Z,59.13
2023-04-16T17:52:18.553Z,59.42
2023-04-16T17:54:51.044Z,59.42
2023-04-16T17:57:23.300Z,59.72
2023-04-16T17:59:55.657Z,59.81
2023-04-16T18:02:28.426Z,60.14
2023-04-16T18:05:01.621Z,60.19
2023-04-16T18:07:34.821Z,60.90
2023-04-16T18:10:09.143Z,63.80
2023-04-16T18:12:42.350Z,63.30
2023-04-16T18:15:15.366Z,64.08
2023-04-16T18:17:47.685Z,65.35
2023-04-16T18:20:19.948Z,66.84
2023-04-16T18:22:52.225Z,65.71
2023-04-16T18:25:33.924Z,65.47
2023-04-16T18:28:08.553Z,64.97
2023-04-16T18:30:40.929Z,64.23
2023-04-16T18:35:48.568Z,63.93
2023-04-16T18:38:21.008Z,63.97
2023-04-16T18:40:53.479Z,63.95
2023-04-16T18:43:25.697Z,64.38
2023-04-16T18:45:58.017Z,64.39
2023-04-16T18:48:30.321Z,66.20
2023-04-16T18:51:02.721Z,66.24
2023-04-16T18:53:35.440Z,66.55
2023-04-16T18:56:08.581Z,65.75
2023-04-16T18:58:41.340Z,67.04
2023-04-16T19:01:14.287Z,65.88
2023-04-16T19:03:46.712Z,67.78
2023-04-16T19:06:19.374Z,68.68
2023-04-16T19:08:51.883Z,69.19
2023-04-16T19:11:24.435Z,69.39
2023-04-16T19:13:57.638Z,68.17
2023-04-16T19:16:29.878Z,68.77
2023-04-16T19:19:02.376Z,70.11
2023-04-16T19:21:34.524Z,69.78
2023-04-16T19:24:07.183Z,69.75
2023-04-16T19:26:39.275Z,69.25
2023-04-16T19:29:11.962Z,69.76
2023-04-16T19:31:46.549Z,68.88
2023-04-16T19:34:18.656Z,69.33
2023-04-16T19:36:50.820Z,71.08
2023-04-16T19:39:22.989Z,71.25
2023-04-16T19:41:55.182Z,69.89
2023-04-16T19:44:27.938Z,70.10
2023-04-16T19:47:00.246Z,70.65
2023-04-16T19:49:37.404Z,70.20
2023-04-16T19:52:09.473Z,70.31
2023-04-16T19:54:42.366Z,71.56
2023-04-16T19:57:14.547Z,70.62
2023-04-16T19:59:46.676Z,69.38
2023-04-16T20:02:18.894Z,70.12
2023-04-16T20:04:53.200Z,69.20
2023-04-16T20:07:31.639Z,69.85
2023-04-16T20:10:06.066Z,71.94
2023-04-16T20:12:39.198Z,72.35
2023-04-16T20:15:12.852Z,70.82
2023-04-16T20:17:45.330Z,71.03
2023-04-16T20:20:17.798Z,70.82
2023-04-16T20:22:50.080Z,70.37
2023-04-16T20:25:22.691Z,71.50
2023-04-16T20:27:54.950Z,70.93
2023-04-16T20:30:29.583Z,72.71
2023-04-16T20:33:02.094Z,72.72
2023-04-16T20:35:34.918Z,72.69
2023-04-16T20:38:07.316Z,72.47
2023-04-16T20:40:47.450Z,72.59
2023-04-16T20:43:22.323Z,72.42
2023-04-16T20:45:54.644Z,71.81
2023-04-16T20:48:27.100Z,71.47
2023-04-16T20:51:03.061Z,71.54
2023-04-16T20:53:37.104Z,72.45
2023-04-16T20:56:10.151Z,72.64
2023-04-16T20:58:42.952Z,72.25
2023-04-16T21:01:18.629Z,71.78
2023-04-16T21:03:52.130Z,71.36
2023-04-16T21:06:25.280Z,71.17
2023-04-16T21:08:57.450Z,71.01
2023-04-16T21:11:33.417Z,71.44
2023-04-16T21:14:04.330Z,71.74
2023-04-16T21:16:36.646Z,70.95
2023-04-16T21:19:09.989Z,70.99
2023-04-16T21:21:42.484Z,70.86
2023-04-16T21:24:14.966Z,70.14
2023-04-16T21:26:47.129Z,70.08
2023-04-16T21:29:19.418Z,70.18
2023-04-16T21:31:52.032Z,70.44
2023-04-16T21:34:24.903Z,70.49
2023-04-16T21:36:57.335Z,70.31
2023-04-16T21:39:31.143Z,70.55
2023-04-16T21:42:03.322Z,70.93
2023-04-16T21:44:35.473Z,70.62
2023-04-16T21:47:07.836Z,70.69
2023-04-16T21:49:40.262Z,71.08
2023-04-16T21:52:14.478Z,71.08
2023-04-16T21:54:47.461Z,71.12
2023-04-16T21:57:19.615Z,71.49
2023-04-16T21:59:51.761Z,71.93
2023-04-16T22:02:24.131Z,72.26
2023-04-16T22:04:56.447Z,72.58
2023-04-16T22:07:29.045Z,72.56
2023-04-16T22:10:01.367Z,72.56
2023-04-16T22:12:33.653Z,71.92
2023-04-16T22:15:07.723Z,72.73
2023-04-16T22:17:40.565Z,73.27
2023-04-16T22:20:13.565Z,73.10
2023-04-16T22:22:46.754Z,73.35
2023-04-16T22:25:18.896Z,73.77
2023-04-16T22:27:51.045Z,73.92
2023-04-16T22:30:23.213Z,73.93
2023-04-16T22:32:55.370Z,73.69
2023-04-16T22:35:27.718Z,73.68
2023-04-16T22:37:59.846Z,73.22
2023-04-16T22:40:33.125Z,72.92
2023-04-16T22:43:05.266Z,74.02
2023-04-16T22:45:37.641Z,73.20
2023-04-16T22:48:10.388Z,73.89
2023-04-16T22:50:46.420Z,74.39
2023-04-16T22:53:16.932Z,73.53
2023-04-16T22:55:49.092Z,72.93
2023-04-16T22:58:21.486Z,73.46
2023-04-16T23:00:54.469Z,73.24
2023-04-16T23:03:26.686Z,73.49
2023-04-16T23:05:59.084Z,74.71
2023-04-16T23:08:31.686Z,74.55
2023-04-16T23:11:03.939Z,73.81
2023-04-16T23:13:36.432Z,74.23
2023-04-16T23:16:09.700Z,73.54
2023-04-16T23:18:41.899Z,74.35
2023-04-16T23:21:14.058Z,73.66
2023-04-16T23:23:46.542Z,74.19
2023-04-16T23:26:18.662Z,74.90
2023-04-16T23:28:50.906Z,75.93
2023-04-16T23:31:23.149Z,75.22
2023-04-16T23:33:55.310Z,75.36
2023-04-16T23:36:27.622Z,75.50
2023-04-16T23:38:59.707Z,75.09
2023-04-16T23:41:31.935Z,75.52
2023-04-16T23:44:04.092Z,76.25
2023-04-16T23:46:36.362Z,75.29
2023-04-16T23:49:08.909Z,75.89
2023-04-16T23:51:41.419Z,75.60
2023-04-16T23:54:13.699Z,75.55
2023-04-16T23:56:45.844Z,75.70
2023-04-16T23:59:17.954Z,75.55
